createdAt,value
2022-08-25T00:00:47.741Z,55.00
2022-08-25T00:04:53.689Z,55.10
2022-08-25T00:09:00.043Z,55.70
2022-08-25T00:13:03.704Z,55.80
2022-08-25T00:17:07.852Z,55.90
2022-08-25T00:21:10.774Z,56.30
2022-08-25T00:25:15.050Z,56.30
2022-08-25T00:29:18.621Z,56.60
2022-08-25T00:33:21.460Z,56.80
2022-08-25T00:37:24.294Z,57.00
2022-08-25T00:41:28.847Z,57.10
2022-08-25T00:45:31.594Z,57.10
2022-08-25T00:49:38.345Z,57.40
2022-08-25T00:53:41.939Z,57.80
2022-08-25T00:57:48.705Z,58.30
2022-08-25T01:01:52.491Z,58.30
2022-08-25T01:05:56.442Z,58.50
2022-08-25T01:10:01.659Z,58.80
2022-08-25T01:14:07.062Z,59.50
2022-08-25T01:18:09.846Z,59.50
2022-08-25T01:22:14.149Z,59.80
2022-08-25T01:26:21.068Z,60.30
2022-08-25T01:30:34.250Z,60.10
2022-08-25T01:34:40.960Z,60.80
2022-08-25T01:38:45.073Z,61.20
2022-08-25T01:42:58.489Z,61.30
2022-08-25T01:47:01.388Z,62.10
2022-08-25T01:51:04.170Z,62.20
2022-08-25T01:55:09.170Z,62.20
2022-08-25T01:59:12.015Z,62.80
2022-08-25T02:03:18.595Z,63.00
2022-08-25T02:07:21.894Z,63.00
2022-08-25T02:11:26.390Z,63.10
2022-08-25T02:15:29.179Z,63.10
2022-08-25T02:19:32.109Z,63.30
2022-08-25T02:23:36.057Z,63.30
2022-08-25T02:27:40.182Z,63.40
2022-08-25T02:31:43.273Z,63.30
2022-08-25T02:35:46.079Z,63.70
2022-08-25T02:39:49.084Z,63.60
2022-08-25T02:43:53.974Z,63.70
2022-08-25T02:47:56.905Z,64.00
2022-08-25T02:52:00.505Z,64.20
2022-08-25T02:56:04.751Z,64.30
2022-08-25T03:00:11.621Z,64.80
2022-08-25T03:04:15.648Z,65.20
2022-08-25T03:08:18.642Z,65.60
2022-08-25T03:12:22.494Z,66.10
2022-08-25T03:16:27.858Z,66.80
2022-08-25T03:20:31.303Z,67.00
2022-08-25T03:24:34.236Z,67.90
2022-08-25T03:28:37.004Z,68.40
2022-08-25T03:32:41.285Z,68.70
2022-08-25T03:36:44.694Z,69.50
2022-08-25T03:40:47.499Z,69.20
2022-08-25T03:44:50.411Z,70.00
2022-08-25T03:48:54.918Z,70.00
2022-08-25T03:52:59.191Z,70.80
2022-08-25T03:57:01.980Z,70.60
2022-08-25T04:01:04.827Z,71.40
2022-08-25T04:05:10.589Z,72.20
2022-08-25T04:09:13.858Z,72.40
2022-08-25T04:13:16.618Z,73.60
2022-08-25T04:17:19.772Z,74.20
2022-08-25T04:21:25.141Z,73.80
2022-08-25T04:25:28.396Z,73.90
2022-08-25T04:29:31.196Z,74.10
2022-08-25T04:33:34.309Z,74.10
2022-08-25T04:37:38.469Z,74.20
2022-08-25T04:41:41.277Z,73.90
2022-08-25T04:45:44.165Z,74.30
2022-08-25T04:49:47.824Z,74.80
2022-08-25T04:53:52.774Z,75.50
2022-08-25T04:57:55.675Z,74.60
2022-08-25T05:02:02.026Z,75.20
2022-08-25T05:06:06.084Z,75.30
2022-08-25T05:10:10.594Z,76.10
2022-08-25T05:14:15.389Z,76.60
2022-08-25T05:18:19.734Z,76.60
2022-08-25T05:22:22.563Z,77.20
2022-08-25T05:26:30.034Z,77.20
2022-08-25T05:30:32.938Z,77.30
2022-08-25T05:34:36.973Z,76.60
2022-08-25T05:38:41.020Z,73.00
2022-08-25T05:42:45.120Z,65.90
2022-08-25T05:46:47.887Z,59.90
2022-08-25T05:50:53.649Z,56.10
2022-08-25T05:54:56.494Z,57.10
2022-08-25T05:59:00.642Z,57.50
2022-08-25T06:03:03.370Z,59.60
2022-08-25T06:07:06.169Z,60.50
2022-08-25T06:11:09.478Z,62.10
2022-08-25T06:15:16.184Z,62.90
2022-08-25T06:19:19.387Z,61.80
2022-08-25T06:23:22.125Z,58.30
2022-08-25T06:27:24.929Z,59.50
2022-08-25T06:31:29.118Z,62.50
2022-08-25T06:35:32.054Z,64.40
2022-08-25T06:39:37.398Z,65.90
2022-08-25T06:43:44.998Z,66.50
2022-08-25T06:47:52.865Z,66.80
2022-08-25T06:51:55.646Z,67.10
2022-08-25T06:56:01.293Z,67.10
2022-08-25T07:00:07.398Z,67.70
2022-08-25T07:04:13.198Z,67.80
2022-08-25T07:08:16.226Z,68.20
2022-08-25T07:12:19.017Z,68.40
2022-08-25T07:16:22.026Z,68.20
2022-08-25T07:20:26.799Z,65.60
2022-08-25T07:24:30.279Z,64.40
2022-08-25T07:28:33.106Z,65.40
2022-08-25T07:32:41.831Z,66.00
2022-08-25T07:36:46.852Z,66.50
2022-08-25T07:40:54.552Z,66.70
2022-08-25T07:44:59.780Z,67.10
2022-08-25T07:49:02.749Z,66.90
2022-08-25T07:53:07.430Z,66.10
2022-08-25T07:57:10.852Z,65.00
2022-08-25T08:01:16.054Z,64.50
2022-08-25T08:05:18.882Z,64.30
2022-08-25T08:09:22.947Z,64.10
2022-08-25T08:13:26.693Z,61.90
2022-08-25T08:17:29.591Z,60.20
2022-08-25T08:21:34.963Z,59.40
2022-08-25T08:25:39.172Z,59.40
2022-08-25T08:29:43.729Z,58.90
2022-08-25T08:33:46.715Z,58.90
2022-08-25T08:37:52.551Z,57.80
2022-08-25T08:42:22.313Z,57.60
2022-08-25T08:46:28.363Z,56.40
2022-08-25T08:50:36.922Z,55.50
2022-08-25T08:54:44.218Z,55.30
2022-08-25T08:58:53.120Z,55.10
2022-08-25T09:03:01.731Z,56.50
2022-08-25T09:07:13.818Z,56.50
2022-08-25T09:11:30.597Z,55.40
2022-08-25T09:16:02.268Z,55.90
2022-08-25T09:20:19.432Z,56.10
2022-08-25T09:24:38.458Z,55.50
2022-08-25T09:28:48.864Z,54.90
2022-08-25T09:33:03.802Z,55.50
2022-08-25T09:37:08.067Z,53.70
2022-08-25T09:41:11.304Z,53.20
2022-08-25T09:45:15.632Z,52.30
2022-08-25T09:49:21.310Z,51.50
2022-08-25T09:53:24.753Z,50.80
2022-08-25T09:57:36.429Z,51.50
2022-08-25T10:01:50.379Z,49.90
2022-08-25T10:06:05.591Z,50.40
2022-08-25T10:10:25.432Z,49.70
2022-08-25T10:14:35.088Z,49.80
2022-08-25T10:18:39.335Z,49.50
2022-08-25T10:22:44.755Z,49.80
2022-08-25T10:26:59.684Z,49.00
2022-08-25T10:31:10.219Z,49.70
2022-08-25T10:35:16.781Z,49.80
2022-08-25T10:39:34.204Z,49.60
2022-08-25T10:43:47.436Z,49.20
2022-08-25T10:48:03.062Z,49.40
2022-08-25T10:52:12.683Z,49.20
2022-08-25T10:56:21.152Z,50.00
2022-08-25T11:00:31.782Z,49.60
2022-08-25T11:04:42.170Z,49.60
2022-08-25T11:08:48.438Z,50.00
2022-08-25T11:12:56.387Z,49.20
2022-08-25T11:17:04.850Z,49.20
2022-08-25T11:21:13.773Z,50.00
2022-08-25T11:25:21.705Z,49.60
2022-08-25T11:29:32.704Z,48.70
2022-08-25T11:33:36.013Z,48.70
2022-08-25T11:37:56.951Z,47.90
2022-08-25T11:42:13.707Z,47.80
2022-08-25T11:46:29.866Z,47.70
2022-08-25T11:50:36.598Z,47.50
2022-08-25T11:54:44.914Z,48.00
2022-08-25T11:58:51.692Z,47.70
2022-08-25T12:02:59.637Z,48.00
2022-08-25T12:07:23.883Z,46.90
2022-08-25T12:11:54.593Z,47.10
2022-08-25T12:16:01.124Z,47.60
2022-08-25T12:20:07.637Z,47.30
2022-08-25T12:24:17.424Z,47.40
2022-08-25T12:28:35.090Z,47.90
2022-08-25T12:32:56.504Z,47.50
2022-08-25T12:37:06.229Z,47.00
2022-08-25T12:41:12.287Z,47.60
2022-08-25T12:45:38.481Z,46.70
2022-08-25T12:49:41.733Z,46.90
2022-08-25T12:53:50.993Z,47.20
2022-08-25T12:57:58.677Z,46.90
2022-08-25T13:02:37.520Z,47.10
2022-08-25T13:06:59.638Z,46.50
2022-08-25T13:11:11.900Z,46.00
2022-08-25T13:15:16.863Z,46.30
2022-08-25T13:19:21.585Z,45.20
2022-08-25T13:23:29.202Z,45.90
2022-08-25T13:27:36.585Z,45.10
2022-08-25T13:31:50.812Z,44.80
2022-08-25T13:36:16.948Z,45.60
2022-08-25T13:40:26.069Z,45.80
2022-08-25T13:44:33.346Z,45.70
2022-08-25T13:48:39.178Z,46.10
2022-08-25T13:52:42.965Z,46.00
2022-08-25T13:56:48.677Z,46.70
2022-08-25T14:01:19.983Z,45.70
2022-08-25T14:05:35.988Z,45.00
2022-08-25T14:09:42.109Z,44.60
2022-08-25T14:13:45.882Z,44.60
2022-08-25T14:18:03.053Z,44.40
2022-08-25T14:22:06.745Z,43.90
2022-08-25T14:26:10.282Z,43.60
2022-08-25T14:30:14.884Z,42.00
2022-08-25T14:34:20.908Z,41.10
2022-08-25T14:38:24.565Z,40.80
2022-08-25T14:42:27.420Z,40.40
2022-08-25T14:46:32.994Z,40.20
2022-08-25T14:50:41.094Z,39.80
2022-08-25T14:54:45.454Z,39.50
2022-08-25T14:58:51.536Z,39.80
2022-08-25T15:02:58.028Z,39.20
2022-08-25T15:07:22.958Z,38.20
2022-08-25T15:11:27.069Z,38.10
2022-08-25T15:15:32.877Z,38.10
2022-08-25T15:19:36.428Z,37.90
2022-08-25T15:23:41.314Z,38.70
2022-08-25T15:27:47.950Z,39.20
2022-08-25T15:31:51.320Z,38.20
2022-08-25T15:35:54.149Z,38.60
2022-08-25T15:39:58.527Z,38.60
2022-08-25T15:44:01.413Z,39.30
2022-08-25T15:48:06.847Z,37.90
2022-08-25T15:52:13.473Z,37.50
2022-08-25T15:56:26.398Z,38.30
2022-08-25T16:00:31.923Z,38.10
2022-08-25T16:04:35.198Z,37.70
2022-08-25T16:08:38.579Z,37.40
2022-08-25T16:12:42.888Z,37.70
2022-08-25T16:16:45.832Z,37.80
2022-08-25T16:20:49.317Z,38.20
2022-08-25T16:24:52.821Z,38.60
2022-08-25T16:28:57.290Z,37.80
2022-08-25T16:33:00.846Z,38.30
2022-08-25T16:37:03.979Z,38.50
2022-08-25T16:41:08.944Z,38.80
2022-08-25T16:45:13.735Z,39.70
2022-08-25T16:49:16.984Z,39.80
2022-08-25T16:53:37.648Z,39.20
2022-08-25T16:57:45.936Z,40.20
2022-08-25T17:01:52.588Z,40.70
2022-08-25T17:06:00.266Z,41.20
2022-08-25T17:10:12.470Z,41.20
2022-08-25T17:14:19.699Z,41.60
2022-08-25T17:18:24.018Z,42.10
2022-08-25T17:22:27.434Z,41.80
2022-08-25T17:26:31.036Z,42.80
2022-08-25T17:30:34.576Z,43.30
2022-08-25T17:34:39.107Z,43.50
2022-08-25T17:38:42.047Z,43.60
2022-08-25T17:42:44.905Z,44.10
2022-08-25T17:46:48.301Z,44.60
2022-08-25T17:50:52.466Z,44.90
2022-08-25T17:54:55.264Z,45.40
2022-08-25T17:59:01.982Z,45.90
2022-08-25T18:03:06.802Z,46.20
2022-08-25T18:07:11.072Z,46.70
2022-08-25T18:11:14.347Z,47.00
2022-08-25T18:15:17.166Z,47.20
2022-08-25T18:19:19.945Z,47.80
2022-08-25T18:23:24.278Z,48.30
2022-08-25T18:27:28.538Z,48.40
2022-08-25T18:31:32.219Z,48.90
2022-08-25T18:35:35.172Z,49.40
2022-08-25T18:39:56.980Z,49.60
2022-08-25T18:43:59.827Z,50.00
2022-08-25T18:48:02.774Z,50.50
2022-08-25T18:52:08.835Z,51.10
2022-08-25T18:56:13.164Z,51.40
2022-08-25T19:00:20.351Z,52.10
2022-08-25T19:04:23.241Z,52.30
2022-08-25T19:08:35.109Z,52.20
2022-08-25T19:12:40.489Z,52.30
2022-08-25T19:16:43.886Z,52.30
2022-08-25T19:20:47.004Z,52.50
2022-08-25T19:24:49.924Z,52.70
2022-08-25T19:28:54.912Z,53.10
2022-08-25T19:32:59.033Z,53.40
2022-08-25T19:37:04.504Z,53.50
2022-08-25T19:41:13.945Z,54.00
2022-08-25T19:45:21.570Z,54.00
2022-08-25T19:49:28.121Z,54.70
2022-08-25T19:53:34.905Z,55.00
2022-08-25T19:57:42.913Z,55.30
2022-08-25T20:01:49.618Z,55.50
2022-08-25T20:05:52.819Z,55.90
2022-08-25T20:09:57.517Z,55.90
2022-08-25T20:14:03.868Z,56.30
2022-08-25T20:18:08.469Z,56.70
2022-08-25T20:22:11.996Z,57.10
2022-08-25T20:26:21.718Z,57.10
2022-08-25T20:30:31.163Z,57.60
2022-08-25T20:34:36.048Z,57.90
2022-08-25T20:38:41.078Z,58.10
2022-08-25T20:42:45.918Z,58.30
2022-08-25T20:46:49.588Z,58.80
2022-08-25T20:50:57.833Z,59.00
2022-08-25T20:55:01.148Z,59.30
2022-08-25T20:59:04.725Z,59.40
2022-08-25T21:03:13.519Z,60.00
2022-08-25T21:07:18.088Z,59.80
2022-08-25T21:11:22.694Z,59.90
2022-08-25T21:15:26.146Z,60.40
2022-08-25T21:19:30.286Z,60.60
2022-08-25T21:23:35.091Z,61.30
2022-08-25T21:27:38.112Z,61.20
2022-08-25T21:31:41.507Z,61.50
2022-08-25T21:35:44.430Z,62.20
2022-08-25T21:39:51.568Z,62.90
2022-08-25T21:43:54.633Z,63.50
2022-08-25T21:47:57.417Z,64.20
2022-08-25T21:52:01.040Z,64.40
2022-08-25T21:56:08.653Z,64.80
2022-08-25T22:00:13.068Z,64.60
2022-08-25T22:04:16.272Z,64.70
2022-08-25T22:08:19.519Z,65.10
2022-08-25T22:12:25.017Z,65.20
2022-08-25T22:16:28.789Z,65.80
2022-08-25T22:20:32.551Z,66.50
2022-08-25T22:24:35.685Z,66.80
2022-08-25T22:28:39.974Z,66.90
2022-08-25T22:32:46.926Z,67.70
2022-08-25T22:36:49.973Z,67.80
2022-08-25T22:40:53.517Z,68.10
2022-08-25T22:44:57.924Z,68.90
2022-08-25T22:49:00.822Z,68.20
2022-08-25T22:53:03.998Z,68.90
2022-08-25T22:57:07.603Z,68.50
2022-08-25T23:01:16.292Z,69.10
2022-08-25T23:05:19.674Z,69.60
2022-08-25T23:09:22.721Z,69.60
2022-08-25T23:13:34.634Z,69.90
2022-08-25T23:17:38.966Z,70.00
2022-08-25T23:21:59.547Z,70.00
2022-08-25T23:26:02.537Z,70.20
2022-08-25T23:30:06.537Z,70.80
2022-08-25T23:34:13.268Z,71.00
2022-08-25T23:38:16.157Z,71.10
2022-08-25T23:42:20.268Z,71.60
2022-08-25T23:46:25.368Z,72.00
2022-08-25T23:50:29.689Z,71.60
2022-08-25T23:54:34.319Z,72.10
2022-08-25T23:58:37.063Z,72.00
